Time,TemperatureF,DewpointF,PressureIn,WindDirection,WindDirectionDegrees,WindSpeedMPH,WindSpeedGustMPH,Humidity,HourlyPrecipIn,Conditions,Clouds,dailyrainin,SolarRadiationWatts/m^2,SoftwareType,DateUTC
2013-01-14 00:02:00,28.0,0.0,-100.00,North,353,4.0,12.0,30,-99.99,,,-99.99,0.000000,,2013-01-14 08:02:00,
2013-01-14 00:12:00,28.0,0.0,-100.00,North,353,4.0,12.0,30,-99.99,,,-99.99,0.000000,,2013-01-14 08:12:00,
2013-01-14 00:22:00,27.0,-1.0,-100.00,NNW,339,4.0,10.0,29,-99.99,,,-99.99,0.000000,,2013-01-14 08:22:00,
2013-01-14 00:32:00,27.0,-1.0,-100.00,NNW,339,4.0,10.0,29,-99.99,,,-99.99,0.000000,,2013-01-14 08:32:00,
2013-01-14 00:42:00,27.0,0.0,-100.00,NNW,338,4.0,9.0,30,-99.99,,,-99.99,0.000000,,2013-01-14 08:42:00,
2013-01-14 00:52:00,27.0,0.0,-100.00,NNW,341,4.0,10.0,30,-99.99,,,-99.99,0.000000,,2013-01-14 08:52:00,
2013-01-14 01:02:00,27.0,0.0,-100.00,NNW,346,4.0,11.0,30,-99.99,,,-99.99,0.000000,,2013-01-14 09:02:00,
2013-01-14 01:10:00,26.0,-1.0,-100.00,NNW,344,5.0,11.0,30,-99.99,,,-99.99,0.000000,,2013-01-14 09:10:00,
2013-01-14 01:12:00,27.0,0.0,-100.00,NNW,346,4.0,11.0,30,-99.99,,,-99.99,0.000000,,2013-01-14 09:12:00,
2013-01-14 01:22:00,27.0,0.0,-100.00,NNW,342,6.0,13.0,30,-99.99,,,-99.99,0.000000,,2013-01-14 09:22:00,
2013-01-14 01:33:00,27.0,0.0,-100.00,NNW,343,6.0,12.0,30,-99.99,,,-99.99,0.000000,,2013-01-14 09:33:00,
2013-01-14 01:42:00,27.0,0.0,-100.00,NNW,347,6.0,10.0,30,-99.99,,,-99.99,0.000000,,2013-01-14 09:42:00,
2013-01-14 01:52:00,26.0,-1.0,-100.00,NNW,338,5.0,10.0,30,-99.99,,,-99.99,0.000000,,2013-01-14 09:52:00,
2013-01-14 02:00:00,26.0,-1.0,-100.00,NNW,333,5.0,15.0,30,-99.99,,,-99.99,0.000000,,2013-01-14 10:00:00,
2013-01-14 02:02:00,26.0,-1.0,-100.00,NNW,344,5.0,11.0,30,-99.99,,,-99.99,0.000000,,2013-01-14 10:02:00,
2013-01-14 02:52:00,26.0,-1.0,-100.00,NNW,333,5.0,15.0,30,-99.99,,,-99.99,0.000000,,2013-01-14 10:52:00,
2013-01-14 04:00:00,24.0,-2.0,-100.00,NW,322,3.0,9.0,32,-99.99,,,-99.99,0.000000,,2013-01-14 12:00:00,
2013-01-14 04:12:00,25.0,-2.0,-100.00,NW,324,5.0,11.0,31,-99.99,,,-99.99,0.000000,,2013-01-14 12:12:00,
2013-01-14 04:22:00,24.0,-1.0,-100.00,NW,321,4.0,8.0,32,-99.99,,,-99.99,0.000000,,2013-01-14 12:22:00,
2013-01-14 04:33:00,24.0,-1.0,-100.00,NW,321,4.0,8.0,32,-99.99,,,-99.99,0.000000,,2013-01-14 12:33:00,
2013-01-14 04:42:00,24.0,-2.0,-100.00,NW,322,3.0,9.0,32,-99.99,,,-99.99,0.000000,,2013-01-14 12:42:00,
2013-01-14 04:52:00,24.0,-2.0,-100.00,NW,322,3.0,9.0,32,-99.99,,,-99.99,0.000000,,2013-01-14 12:52:00,
2013-01-14 05:00:00,24.0,-2.0,-100.00,WNW,302,4.0,5.0,32,-99.99,,,-99.99,0.000000,,2013-01-14 13:00:00,
2013-01-14 05:10:00,23.0,-1.0,-100.00,WNW,300,3.0,6.0,33,-99.99,,,-99.99,0.000000,,2013-01-14 13:10:00,
2013-01-14 05:30:00,23.0,-2.0,-100.00,NW,317,2.0,4.0,33,-99.99,,,-99.99,0.000000,,2013-01-14 13:30:00,
2013-01-14 05:33:00,24.0,-2.0,-100.00,NW,306,4.0,8.0,32,-99.99,,,-99.99,0.000000,,2013-01-14 13:33:00,
2013-01-14 05:43:00,24.0,-2.0,-100.00,WNW,300,3.0,6.0,32,-99.99,,,-99.99,0.000000,,2013-01-14 13:43:00,
2013-01-14 05:52:00,24.0,-2.0,-100.00,WNW,302,4.0,5.0,32,-99.99,,,-99.99,0.000000,,2013-01-14 13:52:00,
2013-01-14 07:12:00,23.0,-1.0,-100.00,NNW,336,3.0,6.0,34,-99.99,,,-99.99,0.000000,,2013-01-14 15:12:00,
2013-01-14 07:23:00,23.0,-1.0,-100.00,NNW,337,3.0,7.0,34,-99.99,,,-99.99,0.000000,,2013-01-14 15:23:00,
2013-01-14 07:33:00,23.0,-1.0,-100.00,NNW,337,3.0,7.0,34,-99.99,,,-99.99,0.000000,,2013-01-14 15:33:00,
2013-01-14 07:43:00,23.0,-1.0,-100.00,NW,326,4.0,9.0,34,-99.99,,,-99.99,7.000000,,2013-01-14 15:43:00,
2013-01-14 07:53:00,23.0,-1.0,-100.00,NW,326,4.0,9.0,34,-99.99,,,-99.99,7.000000,,2013-01-14 15:53:00,
2013-01-14 08:02:00,23.0,-1.0,-100.00,NW,318,6.0,11.0,34,-99.99,,,-99.99,16.000000,,2013-01-14 16:02:00,
2013-01-14 08:12:00,24.0,-1.0,-100.00,NW,324,4.0,8.0,33,-99.99,,,-99.99,57.000000,,2013-01-14 16:12:00,
2013-01-14 08:23:00,24.0,-1.0,-100.00,NNW,327,4.0,8.0,33,-99.99,,,-99.99,62.000000,,2013-01-14 16:23:00,
2013-01-14 08:33:00,25.0,-1.0,-100.00,NW,325,4.0,10.0,32,-99.99,,,-99.99,51.000000,,2013-01-14 16:33:00,
2013-01-14 08:43:00,25.0,-1.0,-100.00,NNW,330,4.0,9.0,31,-99.99,,,-99.99,53.000000,,2013-01-14 16:43:00,
2013-01-14 08:53:00,25.0,-1.0,-100.00,NNW,330,4.0,9.0,31,-99.99,,,-99.99,53.000000,,2013-01-14 16:53:00,
2013-01-14 09:03:00,25.0,-2.0,-100.00,NNW,334,5.0,12.0,30,-99.99,,,-99.99,87.000000,,2013-01-14 17:03:00,
2013-01-14 09:12:00,25.0,-2.0,-100.00,NNW,338,4.0,8.0,30,-99.99,,,-99.99,162.000000,,2013-01-14 17:12:00,
2013-01-14 09:22:00,26.0,-1.0,-100.00,NNW,338,5.0,11.0,30,-99.99,,,-99.99,293.000000,,2013-01-14 17:22:00,
2013-01-14 09:30:00,28.0,-1.0,-100.00,NNW,341,5.0,9.0,27,-99.99,,,-99.99,476.000000,,2013-01-14 17:30:00,
2013-01-14 09:33:00,26.0,-2.0,-100.00,NNW,339,5.0,11.0,29,-99.99,,,-99.99,315.000000,,2013-01-14 17:33:00,
2013-01-14 09:43:00,26.0,-2.0,-100.00,NNW,333,5.0,10.0,28,-99.99,,,-99.99,360.000000,,2013-01-14 17:43:00,
2013-01-14 09:53:00,27.0,-2.0,-100.00,NNW,336,5.0,9.0,28,-99.99,,,-99.99,390.000000,,2013-01-14 17:53:00,
2013-01-14 10:03:00,27.0,-1.0,-100.00,NNW,331,7.0,13.0,28,-99.99,,,-99.99,420.000000,,2013-01-14 18:03:00,
2013-01-14 10:12:00,28.0,-2.0,-100.00,NNW,330,7.0,13.0,27,-99.99,,,-99.99,448.000000,,2013-01-14 18:12:00,
2013-01-14 10:22:00,28.0,-1.0,-100.00,NNW,341,5.0,9.0,27,-99.99,,,-99.99,476.000000,,2013-01-14 18:22:00,
2013-01-14 10:30:00,31.0,-2.0,-100.00,North,350,5.0,13.0,24,-99.99,,,-99.99,609.000000,,2013-01-14 18:30:00,
2013-01-14 10:42:00,29.0,-2.0,-100.00,North,349,4.0,10.0,26,-99.99,,,-99.99,524.000000,,2013-01-14 18:42:00,
2013-01-14 10:52:00,30.0,-1.0,-100.00,North,8,4.0,12.0,25,-99.99,,,-99.99,569.000000,,2013-01-14 18:52:00,
2013-01-14 11:03:00,30.0,-1.0,-100.00,North,8,4.0,12.0,25,-99.99,,,-99.99,569.000000,,2013-01-14 19:03:00,
2013-01-14 11:12:00,31.0,-2.0,-100.00,North,3,5.0,14.0,24,-99.99,,,-99.99,588.000000,,2013-01-14 19:12:00,
2013-01-14 11:22:00,31.0,-2.0,-100.00,North,350,5.0,13.0,24,-99.99,,,-99.99,609.000000,,2013-01-14 19:22:00,
2013-01-14 11:50:00,33.0,-4.0,-100.00,North,357,6.0,14.0,19,-99.99,,,-99.99,676.000000,,2013-01-14 19:50:00,
2013-01-14 11:52:00,31.0,-2.0,-100.00,NNW,341,6.0,15.0,23,-99.99,,,-99.99,651.000000,,2013-01-14 19:52:00,
2013-01-14 12:03:00,32.0,-2.0,-100.00,NNW,348,6.0,18.0,22,-99.99,,,-99.99,659.000000,,2013-01-14 20:03:00,
2013-01-14 12:12:00,32.0,-3.0,-100.00,North,354,7.0,17.0,21,-99.99,,,-99.99,665.000000,,2013-01-14 20:12:00,
2013-01-14 12:22:00,32.0,-3.0,-100.00,North,8,5.0,13.0,21,-99.99,,,-99.99,675.000000,,2013-01-14 20:22:00,
2013-01-14 12:33:00,33.0,-3.0,-100.00,North,359,5.0,12.0,20,-99.99,,,-99.99,676.000000,,2013-01-14 20:33:00,
2013-01-14 12:42:00,33.0,-4.0,-100.00,North,357,6.0,14.0,19,-99.99,,,-99.99,676.000000,,2013-01-14 20:42:00,
2013-01-14 13:12:00,33.0,-3.0,-100.00,North,9,6.0,16.0,20,-99.99,,,-99.99,676.000000,,2013-01-14 21:12:00,
2013-01-14 13:22:00,34.0,-4.0,-100.00,North,7,6.0,14.0,19,-99.99,,,-99.99,659.000000,,2013-01-14 21:22:00,
2013-01-14 13:33:00,34.0,-4.0,-100.00,North,7,6.0,14.0,19,-99.99,,,-99.99,659.000000,,2013-01-14 21:33:00,
2013-01-14 13:42:00,34.0,-4.0,-100.00,NNE,17,6.0,12.0,19,-99.99,,,-99.99,638.000000,,2013-01-14 21:42:00,
2013-01-14 13:53:00,34.0,-4.0,-100.00,NNE,17,6.0,12.0,19,-99.99,,,-99.99,638.000000,,2013-01-14 21:53:00,
2013-01-14 14:02:00,34.0,-4.0,-100.00,North,3,6.0,13.0,19,-99.99,,,-99.99,625.000000,,2013-01-14 22:02:00,
2013-01-14 14:12:00,34.0,-4.0,-100.00,NNE,14,6.0,13.0,19,-99.99,,,-99.99,609.000000,,2013-01-14 22:12:00,
2013-01-14 14:23:00,34.0,-3.0,-100.00,NNE,23,6.0,14.0,19,-99.99,,,-99.99,592.000000,,2013-01-14 22:23:00,
2013-01-14 14:32:00,34.0,-4.0,-100.00,NNE,22,5.0,12.0,19,-99.99,,,-99.99,573.000000,,2013-01-14 22:32:00,
2013-01-14 14:42:00,35.0,-4.0,-100.00,NE,46,4.0,10.0,18,-99.99,,,-99.99,551.000000,,2013-01-14 22:42:00,
2013-01-14 14:52:00,35.0,-4.0,-100.00,North,360,5.0,11.0,18,-99.99,,,-99.99,528.000000,,2013-01-14 22:52:00,
2013-01-14 15:02:00,36.0,-4.0,-100.00,NNE,26,4.0,12.0,18,-99.99,,,-99.99,505.000000,,2013-01-14 23:02:00,
2013-01-14 15:12:00,35.0,-5.0,-100.00,NNW,346,6.0,12.0,17,-99.99,,,-99.99,478.000000,,2013-01-14 23:12:00,
2013-01-14 15:23:00,36.0,-5.0,-100.00,NNE,22,6.0,17.0,17,-99.99,,,-99.99,419.000000,,2013-01-14 23:23:00,
2013-01-14 15:33:00,36.0,-5.0,-100.00,NNE,22,6.0,17.0,17,-99.99,,,-99.99,419.000000,,2013-01-14 23:33:00,
2013-01-14 15:42:00,36.0,-6.0,-100.00,NNW,346,5.0,11.0,16,-99.99,,,-99.99,392.000000,,2013-01-14 23:42:00,
2013-01-14 15:52:00,36.0,-5.0,-100.00,North,3,5.0,10.0,17,-99.99,,,-99.99,360.000000,,2013-01-14 23:52:00,
2013-01-14 16:02:00,36.0,-5.0,-100.00,North,3,6.0,13.0,17,-99.99,,,-99.99,328.000000,,2013-01-15 00:02:00,
2013-01-14 16:12:00,36.0,-4.0,-100.00,North,352,5.0,15.0,17,-99.99,,,-99.99,297.000000,,2013-01-15 00:12:00,
2013-01-14 16:22:00,36.0,-5.0,-100.00,NNW,331,6.0,12.0,17,-99.99,,,-99.99,264.000000,,2013-01-15 00:22:00,
2013-01-14 16:30:00,35.0,-4.0,-100.00,NNW,345,5.0,10.0,18,-99.99,,,-99.99,18.000000,,2013-01-15 00:30:00,
2013-01-14 16:32:00,36.0,-4.0,-100.00,North,354,5.0,12.0,18,-99.99,,,-99.99,230.000000,,2013-01-15 00:32:00,
2013-01-14 16:43:00,35.0,-4.0,-100.00,NNW,335,5.0,11.0,18,-99.99,,,-99.99,196.000000,,2013-01-15 00:43:00,
2013-01-14 16:52:00,35.0,-3.0,-100.00,North,10,4.0,9.0,19,-99.99,,,-99.99,162.000000,,2013-01-15 00:52:00,
2013-01-14 17:00:00,34.0,-3.0,-100.00,NNE,17,3.0,8.0,20,-99.99,,,-99.99,4.000000,,2013-01-15 01:00:00,
2013-01-14 17:02:00,35.0,-4.0,-100.00,North,6,4.0,12.0,18,-99.99,,,-99.99,123.000000,,2013-01-15 01:02:00,
2013-01-14 17:12:00,35.0,-3.0,-100.00,North,0,4.0,9.0,19,-99.99,,,-99.99,33.000000,,2013-01-15 01:12:00,
2013-01-14 17:22:00,35.0,-4.0,-100.00,NNW,345,5.0,10.0,18,-99.99,,,-99.99,18.000000,,2013-01-15 01:22:00,
2013-01-14 17:42:00,34.0,-3.0,-100.00,NNE,16,3.0,7.0,20,-99.99,,,-99.99,7.000000,,2013-01-15 01:42:00,
2013-01-14 17:52:00,34.0,-3.0,-100.00,NNE,17,3.0,8.0,20,-99.99,,,-99.99,4.000000,,2013-01-15 01:52:00,
2013-01-14 18:32:00,32.0,-3.0,-100.00,North,8,3.0,7.0,21,-99.99,,,-99.99,0.000000,,2013-01-15 02:32:00,
2013-01-14 18:42:00,32.0,-3.0,-100.00,North,6,3.0,8.0,21,-99.99,,,-99.99,0.000000,,2013-01-15 02:42:00,
2013-01-14 18:52:00,32.0,-3.0,-100.00,North,9,2.0,7.0,21,-99.99,,,-99.99,0.000000,,2013-01-15 02:52:00,
2013-01-14 19:02:00,32.0,-3.0,-100.00,NNE,15,3.0,6.0,21,-99.99,,,-99.99,0.000000,,2013-01-15 03:02:00,
2013-01-14 19:12:00,32.0,-2.0,-100.00,NNE,22,3.0,6.0,22,-99.99,,,-99.99,0.000000,,2013-01-15 03:12:00,
2013-01-14 19:22:00,32.0,-1.0,-100.00,NNE,19,3.0,7.0,24,-99.99,,,-99.99,0.000000,,2013-01-15 03:22:00,
2013-01-14 19:33:00,31.0,0.0,-100.00,NNE,20,3.0,6.0,26,-99.99,,,-99.99,0.000000,,2013-01-15 03:33:00,
2013-01-14 19:42:00,31.0,1.0,-100.00,NNE,16,3.0,8.0,27,-99.99,,,-99.99,0.000000,,2013-01-15 03:42:00,
2013-01-14 19:52:00,30.0,1.0,-100.00,NE,41,1.0,5.0,28,-99.99,,,-99.99,0.000000,,2013-01-15 03:52:00,
2013-01-14 20:02:00,30.0,2.0,-100.00,East,91,1.0,3.0,29,-99.99,,,-99.99,0.000000,,2013-01-15 04:02:00,
2013-01-14 20:12:00,30.0,2.0,-100.00,ENE,71,1.0,3.0,30,-99.99,,,-99.99,0.000000,,2013-01-15 04:12:00,
2013-01-14 20:22:00,29.0,2.0,-100.00,NNE,22,1.0,3.0,30,-99.99,,,-99.99,0.000000,,2013-01-15 04:22:00,
2013-01-14 20:32:00,30.0,2.0,-100.00,NNE,32,1.0,4.0,30,-99.99,,,-99.99,0.000000,,2013-01-15 04:32:00,
2013-01-14 20:42:00,29.0,2.0,-100.00,NW,306,3.0,6.0,30,-99.99,,,-99.99,0.000000,,2013-01-15 04:42:00,
2013-01-14 20:52:00,29.0,2.0,-100.00,NW,304,2.0,4.0,31,-99.99,,,-99.99,0.000000,,2013-01-15 04:52:00,
2013-01-14 21:03:00,29.0,3.0,-100.00,WNW,298,2.0,5.0,32,-99.99,,,-99.99,0.000000,,2013-01-15 05:03:00,
2013-01-14 21:12:00,29.0,2.0,-100.00,WNW,296,2.0,5.0,31,-99.99,,,-99.99,0.000000,,2013-01-15 05:12:00,
2013-01-14 21:22:00,29.0,1.0,-100.00,NNW,332,3.0,6.0,30,-99.99,,,-99.99,0.000000,,2013-01-15 05:22:00,
2013-01-14 21:33:00,29.0,1.0,-100.00,NNW,328,2.0,7.0,30,-99.99,,,-99.99,0.000000,,2013-01-15 05:33:00,
2013-01-14 21:42:00,28.0,1.0,-100.00,NW,326,1.0,7.0,31,-99.99,,,-99.99,0.000000,,2013-01-15 05:42:00,
2013-01-14 21:52:00,28.0,1.0,-100.00,NW,324,2.0,8.0,31,-99.99,,,-99.99,0.000000,,2013-01-15 05:52:00,
2013-01-14 22:02:00,28.0,1.0,-100.00,NW,324,2.0,8.0,31,-99.99,,,-99.99,0.000000,,2013-01-15 06:02:00,
2013-01-14 22:12:00,28.0,1.0,-100.00,NNW,329,3.0,5.0,31,-99.99,,,-99.99,0.000000,,2013-01-15 06:12:00,
2013-01-14 22:22:00,28.0,1.0,-100.00,NW,324,3.0,6.0,31,-99.99,,,-99.99,0.000000,,2013-01-15 06:22:00,
2013-01-14 22:32:00,28.0,1.0,-100.00,NW,321,3.0,8.0,30,-99.99,,,-99.99,0.000000,,2013-01-15 06:32:00,
2013-01-14 22:42:00,28.0,0.0,-100.00,NW,322,4.0,9.0,30,-99.99,,,-99.99,0.000000,,2013-01-15 06:42:00,
2013-01-14 22:52:00,27.0,1.0,-100.00,NW,312,4.0,7.0,31,-99.99,,,-99.99,0.000000,,2013-01-15 06:52:00,
2013-01-14 23:02:00,27.0,1.0,-100.00,NW,324,3.0,7.0,31,-99.99,,,-99.99,0.000000,,2013-01-15 07:02:00,
2013-01-14 23:12:00,27.0,1.0,-100.00,NW,324,3.0,7.0,31,-99.99,,,-99.99,0.000000,,2013-01-15 07:12:00,
2013-01-14 23:22:00,27.0,0.0,-100.00,NW,317,2.0,5.0,31,-99.99,,,-99.99,0.000000,,2013-01-15 07:22:00,
2013-01-14 23:32:00,27.0,1.0,-100.00,NW,311,3.0,6.0,32,-99.99,,,-99.99,0.000000,,2013-01-15 07:32:00,
2013-01-14 23:42:00,27.0,0.0,-100.00,NNW,336,3.0,7.0,31,-99.99,,,-99.99,0.000000,,2013-01-15 07:42:00,
2013-01-14 23:52:00,27.0,0.0,-100.00,North,350,2.0,5.0,31,-99.99,,,-99.99,0.000000,,2013-01-15 07:52:00,